createdAt,value
2019-03-16T00:00:52.376Z,13.25
2019-03-16T00:03:22.390Z,17.45
2019-03-16T00:05:52.448Z,12.68
2019-03-16T00:08:22.579Z,17.32
2019-03-16T00:10:52.248Z,22.00
2019-03-16T00:13:22.460Z,22.25
2019-03-16T00:15:51.996Z,21.82
2019-03-16T00:18:22.093Z,26.25
2019-03-16T00:20:51.969Z,14.30
2019-03-16T00:23:21.844Z,29.25
2019-03-16T00:25:51.672Z,21.33
2019-03-16T00:28:21.247Z,18.80
2019-03-16T00:30:51.095Z,30.68
2019-03-16T00:33:20.764Z,25.60
2019-03-16T00:35:50.891Z,17.62
2019-03-16T00:38:23.367Z,19.12
2019-03-16T00:40:52.485Z,17.95
2019-03-16T00:43:22.693Z,17.87
2019-03-16T00:45:52.574Z,21.45
2019-03-16T00:48:22.274Z,22.20
2019-03-16T00:50:52.263Z,18.27
2019-03-16T00:53:22.688Z,19.10
2019-03-16T00:55:52.449Z,16.57
2019-03-16T00:58:22.205Z,24.92
2019-03-16T01:00:52.456Z,12.28
2019-03-16T01:03:22.477Z,21.20
2019-03-16T01:05:52.329Z,16.55
2019-03-16T01:08:22.085Z,20.37
2019-03-16T01:10:51.686Z,26.12
2019-03-16T01:13:21.483Z,20.17
2019-03-16T01:15:51.209Z,20.40
2019-03-16T01:18:20.958Z,21.90
2019-03-16T01:20:50.916Z,27.45
2019-03-16T01:23:20.774Z,16.82
2019-03-16T01:25:50.410Z,14.78
2019-03-16T01:28:20.430Z,20.95
2019-03-16T01:30:50.410Z,28.02
2019-03-16T01:33:20.661Z,23.15
2019-03-16T01:35:50.889Z,11.83
2019-03-16T01:38:20.653Z,19.48
2019-03-16T01:40:50.253Z,27.45
2019-03-16T01:43:20.169Z,29.52
2019-03-16T01:45:50.162Z,22.27
2019-03-16T01:48:19.802Z,23.62
2019-03-16T01:50:49.942Z,20.40
2019-03-16T01:53:19.902Z,19.85
2019-03-16T01:55:50.175Z,19.02
2019-03-16T01:58:19.633Z,27.25
2019-03-16T02:00:49.331Z,24.12
2019-03-16T02:03:19.145Z,15.65
2019-03-16T02:05:49.348Z,12.78
2019-03-16T02:08:19.080Z,25.75
2019-03-16T02:10:48.787Z,22.42
2019-03-16T02:13:18.393Z,23.95
2019-03-16T02:15:48.210Z,9.73
2019-03-16T02:18:18.237Z,21.82
2019-03-16T02:20:48.007Z,14.70
2019-03-16T02:23:18.133Z,16.50
2019-03-16T02:25:47.593Z,17.12
2019-03-16T02:28:17.519Z,13.40
2019-03-16T02:30:47.233Z,17.90
2019-03-16T02:33:16.986Z,13.35
2019-03-16T02:35:47.049Z,13.65
2019-03-16T02:38:16.807Z,18.73
2019-03-16T02:40:46.624Z,12.88
2019-03-16T02:43:16.257Z,21.25
2019-03-16T02:45:46.092Z,15.40
2019-03-16T02:48:15.848Z,15.13
2019-03-16T02:50:46.029Z,13.30
2019-03-16T02:53:15.966Z,11.95
2019-03-16T02:55:45.789Z,15.35
2019-03-16T02:58:15.643Z,21.05
2019-03-16T03:00:45.058Z,9.13
2019-03-16T03:03:28.496Z,11.75
2019-03-16T03:05:46.279Z,14.38
2019-03-16T03:08:15.780Z,10.82
2019-03-16T03:10:45.306Z,20.37
2019-03-16T03:13:15.120Z,21.10
2019-03-16T03:15:44.878Z,20.15
2019-03-16T03:18:14.390Z,16.60
2019-03-16T03:20:44.217Z,21.87
2019-03-16T03:23:14.045Z,14.93
2019-03-16T03:25:43.725Z,21.57
2019-03-16T03:28:13.802Z,7.80
2019-03-16T03:30:43.671Z,8.05
2019-03-16T03:33:13.325Z,22.00
2019-03-16T03:35:43.388Z,22.73
2019-03-16T03:38:13.151Z,13.58
2019-03-16T03:40:43.086Z,14.55
2019-03-16T03:43:12.665Z,16.07
2019-03-16T03:45:42.427Z,21.57
2019-03-16T03:48:12.340Z,11.73
2019-03-16T03:50:42.116Z,12.10
2019-03-16T03:53:12.463Z,15.43
2019-03-16T03:55:42.243Z,14.85
2019-03-16T03:58:12.194Z,11.65
2019-03-16T04:00:41.790Z,14.23
2019-03-16T04:03:11.644Z,18.27
2019-03-16T04:05:41.291Z,15.32
2019-03-16T04:08:11.176Z,11.93
2019-03-16T04:10:41.174Z,18.82
2019-03-16T04:13:11.046Z,12.98
2019-03-16T04:15:40.926Z,11.83
2019-03-16T04:18:11.007Z,10.75
2019-03-16T04:20:41.165Z,15.83
2019-03-16T04:23:11.123Z,16.62
2019-03-16T04:25:41.315Z,13.30
2019-03-16T04:28:11.513Z,14.60
2019-03-16T04:30:41.396Z,19.10
2019-03-16T04:33:12.129Z,13.70
2019-03-16T04:35:41.826Z,20.10
2019-03-16T04:38:11.769Z,11.35
2019-03-16T04:40:44.507Z,18.15
2019-03-16T04:43:13.339Z,12.60
2019-03-16T04:45:43.433Z,7.78
2019-03-16T04:48:13.630Z,10.72
2019-03-16T04:50:43.568Z,10.00
2019-03-16T04:53:13.664Z,22.42
2019-03-16T04:55:45.959Z,14.75
2019-03-16T04:58:15.958Z,10.43
2019-03-16T05:00:45.894Z,22.05
2019-03-16T05:03:16.214Z,15.70
2019-03-16T05:05:46.209Z,10.45
2019-03-16T05:08:16.205Z,14.20
2019-03-16T05:10:46.441Z,19.15
2019-03-16T05:13:19.212Z,11.60
2019-03-16T05:15:50.714Z,13.05
2019-03-16T05:18:19.932Z,12.45
2019-03-16T05:20:49.978Z,18.87
2019-03-16T05:23:20.034Z,25.23
2019-03-16T05:25:49.602Z,18.02
2019-03-16T05:28:19.503Z,11.48
2019-03-16T05:30:49.339Z,16.75
2019-03-16T05:33:19.016Z,15.00
2019-03-16T05:35:49.092Z,17.60
2019-03-16T05:38:19.201Z,14.93
2019-03-16T05:40:49.345Z,19.17
2019-03-16T05:43:18.993Z,12.03
2019-03-16T05:45:48.719Z,15.18
2019-03-16T05:48:18.916Z,16.87
2019-03-16T05:50:49.791Z,16.85
2019-03-16T05:53:20.102Z,12.15
2019-03-16T05:55:51.447Z,16.10
2019-03-16T05:58:21.361Z,11.48
2019-03-16T06:00:50.989Z,13.45
2019-03-16T06:03:20.849Z,12.10
2019-03-16T06:05:50.511Z,18.92
2019-03-16T06:08:20.463Z,9.48
2019-03-16T06:10:50.127Z,16.90
2019-03-16T06:13:19.984Z,13.45
2019-03-16T06:15:49.912Z,21.25
2019-03-16T06:18:19.911Z,21.45
2019-03-16T06:20:49.516Z,19.37
2019-03-16T06:23:19.229Z,19.07
2019-03-16T06:25:48.710Z,21.30
2019-03-16T06:28:18.469Z,24.65
2019-03-16T06:30:48.045Z,25.50
2019-03-16T06:33:17.750Z,22.05
2019-03-16T06:35:47.387Z,25.32
2019-03-16T06:38:16.907Z,25.40
2019-03-16T06:40:46.370Z,18.87
2019-03-16T06:43:16.007Z,16.70
2019-03-16T06:45:45.681Z,17.42
2019-03-16T06:48:16.123Z,20.32
2019-03-16T06:50:46.018Z,18.77
2019-03-16T06:53:15.709Z,16.10
2019-03-16T06:55:45.138Z,16.93
2019-03-16T06:58:14.990Z,25.82
2019-03-16T07:00:45.060Z,21.93
2019-03-16T07:03:15.110Z,15.40
2019-03-16T07:05:44.869Z,14.70
2019-03-16T07:08:14.591Z,24.30
2019-03-16T07:10:44.147Z,19.48
2019-03-16T07:13:13.786Z,17.00
2019-03-16T07:15:43.604Z,17.37
2019-03-16T07:18:13.190Z,13.88
2019-03-16T07:20:43.074Z,13.62
2019-03-16T07:23:12.557Z,17.17
2019-03-16T07:25:42.039Z,10.05
2019-03-16T07:28:11.865Z,8.80
2019-03-16T07:30:41.457Z,14.13
2019-03-16T07:33:10.962Z,14.95
2019-03-16T07:35:40.359Z,16.05
2019-03-16T07:38:10.072Z,14.07
2019-03-16T07:40:40.016Z,15.88
2019-03-16T07:43:09.791Z,22.65
2019-03-16T07:45:39.586Z,24.27
2019-03-16T07:48:09.253Z,25.02
2019-03-16T07:50:39.044Z,21.25
2019-03-16T07:53:08.996Z,28.27
2019-03-16T07:55:39.701Z,19.92
2019-03-16T07:58:09.948Z,16.77
2019-03-16T08:00:39.899Z,23.92
2019-03-16T08:03:09.703Z,14.50
2019-03-16T08:05:39.469Z,17.70
2019-03-16T08:08:09.106Z,22.25
2019-03-16T08:10:39.105Z,24.25
2019-03-16T08:13:08.627Z,21.95
2019-03-16T08:15:38.659Z,27.22
2019-03-16T08:18:08.471Z,21.52
2019-03-16T08:20:37.984Z,24.90
2019-03-16T08:23:07.543Z,28.30
2019-03-16T08:25:37.308Z,23.98
2019-03-16T08:28:07.008Z,23.65
2019-03-16T08:30:37.064Z,17.27
2019-03-16T08:33:06.836Z,21.68
2019-03-16T08:35:36.593Z,16.82
2019-03-16T08:38:06.466Z,12.07
2019-03-16T08:40:36.161Z,16.90
2019-03-16T08:43:06.222Z,12.65
2019-03-16T08:45:36.400Z,6.30
2019-03-16T08:48:06.359Z,8.95
2019-03-16T08:50:36.027Z,5.20
2019-03-16T08:53:05.988Z,6.10
2019-03-16T08:55:35.679Z,4.60
2019-03-16T08:58:06.457Z,6.28
2019-03-16T09:00:36.418Z,8.25
2019-03-16T09:03:06.197Z,8.38
2019-03-16T09:05:36.291Z,5.33
2019-03-16T09:08:06.227Z,7.17
2019-03-16T09:10:35.860Z,4.17
2019-03-16T09:13:05.764Z,3.52
2019-03-16T09:15:35.746Z,4.20
2019-03-16T09:18:05.384Z,8.00
2019-03-16T09:20:34.972Z,10.80
2019-03-16T09:23:04.674Z,3.27
2019-03-16T09:25:34.284Z,7.45
2019-03-16T09:28:04.064Z,6.97
2019-03-16T09:30:33.802Z,2.83
2019-03-16T09:33:03.871Z,5.70
2019-03-16T09:35:33.704Z,2.65
2019-03-16T09:38:05.278Z,4.10
2019-03-16T09:40:35.198Z,7.33
2019-03-16T09:43:04.786Z,3.60
2019-03-16T09:45:34.542Z,9.28
2019-03-16T09:48:04.424Z,12.15
2019-03-16T09:50:33.882Z,7.97
2019-03-16T09:53:03.759Z,4.72
2019-03-16T09:55:35.208Z,5.45
2019-03-16T09:58:05.143Z,6.25
2019-03-16T10:00:35.029Z,11.68
2019-03-16T10:03:04.902Z,8.23
2019-03-16T10:05:34.635Z,5.17
2019-03-16T10:08:04.668Z,2.45
2019-03-16T10:10:34.423Z,3.95
2019-03-16T10:13:04.304Z,1.35
2019-03-16T10:15:34.191Z,8.58
2019-03-16T10:18:03.825Z,6.50
2019-03-16T10:20:33.704Z,1.55
2019-03-16T10:23:03.414Z,5.72
2019-03-16T10:25:33.345Z,8.05
2019-03-16T10:28:02.828Z,4.87
2019-03-16T10:30:32.746Z,2.83
2019-03-16T10:33:02.502Z,4.37
2019-03-16T10:35:32.139Z,2.00
2019-03-16T10:38:01.765Z,4.85
2019-03-16T10:40:31.666Z,6.72
2019-03-16T10:43:01.542Z,5.03
2019-03-16T10:45:31.302Z,2.33
2019-03-16T10:48:01.059Z,4.80
2019-03-16T10:50:31.058Z,2.35
2019-03-16T10:53:00.820Z,2.33
2019-03-16T10:55:30.697Z,1.90
2019-03-16T10:58:00.459Z,2.70
2019-03-16T11:00:30.099Z,1.30
2019-03-16T11:02:59.499Z,3.15
2019-03-16T11:05:29.141Z,6.03
2019-03-16T11:07:59.139Z,4.25
2019-03-16T11:10:29.325Z,1.98
2019-03-16T11:12:59.259Z,6.28
2019-03-16T11:15:29.379Z,2.98
2019-03-16T11:17:59.380Z,3.55
2019-03-16T11:20:29.060Z,1.65
2019-03-16T11:23:08.016Z,3.75
2019-03-16T11:25:37.898Z,4.22
2019-03-16T11:28:08.021Z,1.37
2019-03-16T11:30:37.826Z,2.27
2019-03-16T11:33:07.847Z,4.05
2019-03-16T11:35:37.964Z,7.50
2019-03-16T11:38:07.784Z,2.73
2019-03-16T11:40:37.536Z,2.17
2019-03-16T11:43:07.302Z,2.50
2019-03-16T11:45:36.796Z,2.87
2019-03-16T11:48:06.818Z,4.67
2019-03-16T11:50:36.556Z,1.80
2019-03-16T11:53:08.260Z,3.15
2019-03-16T11:55:38.073Z,4.70
2019-03-16T11:58:08.020Z,2.07
2019-03-16T12:00:37.780Z,2.45
2019-03-16T12:03:07.541Z,3.15
2019-03-16T12:05:37.636Z,1.55
2019-03-16T12:08:07.419Z,1.70
2019-03-16T12:10:37.294Z,2.25
2019-03-16T12:13:16.792Z,1.47
2019-03-16T12:15:38.734Z,4.60
2019-03-16T12:18:08.496Z,1.63
2019-03-16T12:20:38.382Z,5.80
2019-03-16T12:23:08.415Z,4.40
2019-03-16T12:25:38.257Z,4.00
2019-03-16T12:28:07.982Z,5.50
2019-03-16T12:30:37.472Z,1.80
2019-03-16T12:33:07.422Z,1.40
2019-03-16T12:35:37.418Z,4.67
2019-03-16T12:38:07.056Z,14.10
2019-03-16T12:40:36.698Z,2.30
2019-03-16T12:43:06.435Z,6.83
2019-03-16T12:45:36.701Z,5.92
2019-03-16T12:48:06.575Z,2.05
2019-03-16T12:50:36.281Z,6.58
2019-03-16T12:53:06.218Z,2.35
2019-03-16T12:55:36.353Z,12.23
2019-03-16T12:58:05.981Z,6.93
2019-03-16T13:00:36.096Z,5.00
2019-03-16T13:03:05.978Z,11.07
2019-03-16T13:05:35.557Z,5.20
2019-03-16T13:08:05.014Z,5.67
2019-03-16T13:10:34.255Z,2.47
2019-03-16T13:13:03.987Z,4.17
2019-03-16T13:15:33.811Z,1.30
2019-03-16T13:18:03.823Z,2.47
2019-03-16T13:20:33.395Z,2.37
2019-03-16T13:23:02.977Z,1.67
2019-03-16T13:25:32.402Z,5.72
2019-03-16T13:28:02.498Z,7.28
2019-03-16T13:30:32.256Z,1.67
2019-03-16T13:33:02.255Z,5.08
2019-03-16T13:35:32.136Z,4.70
2019-03-16T13:38:01.892Z,1.63
2019-03-16T13:40:31.894Z,2.55
2019-03-16T13:43:01.483Z,8.53
2019-03-16T13:45:31.088Z,5.70
2019-03-16T13:48:00.622Z,4.70
2019-03-16T13:50:30.331Z,3.77
2019-03-16T13:53:00.456Z,2.20
2019-03-16T13:55:30.026Z,3.00
2019-03-16T13:57:59.860Z,3.05
2019-03-16T14:00:29.493Z,2.67
2019-03-16T14:02:59.255Z,4.65
2019-03-16T14:05:29.013Z,6.87
2019-03-16T14:07:58.773Z,1.97
2019-03-16T14:10:28.888Z,4.72
2019-03-16T14:12:58.599Z,7.93
2019-03-16T14:15:28.537Z,5.35
2019-03-16T14:17:58.550Z,10.30
2019-03-16T14:20:28.532Z,5.53
2019-03-16T14:22:58.763Z,39.33
2019-03-16T14:25:28.472Z,6.43
2019-03-16T14:27:58.469Z,11.50
2019-03-16T14:30:40.404Z,4.80
2019-03-16T14:32:59.849Z,2.13
2019-03-16T14:35:29.786Z,4.03
2019-03-16T14:37:59.548Z,4.73
2019-03-16T14:40:29.102Z,2.97
2019-03-16T14:42:58.592Z,3.37
2019-03-16T14:45:28.471Z,2.80
2019-03-16T14:47:58.407Z,1.50
2019-03-16T14:50:27.870Z,8.80
2019-03-16T14:52:57.522Z,4.97
2019-03-16T14:55:27.214Z,4.63
2019-03-16T14:57:56.969Z,11.60
2019-03-16T15:00:37.531Z,2.07
2019-03-16T15:02:58.093Z,5.60
2019-03-16T15:05:27.620Z,5.77
2019-03-16T15:07:57.207Z,2.80
2019-03-16T15:10:26.667Z,1.87
2019-03-16T15:12:56.308Z,1.43
2019-03-16T15:15:26.369Z,6.03
2019-03-16T15:17:55.931Z,3.43
2019-03-16T15:20:25.771Z,2.97
2019-03-16T15:22:55.348Z,1.63
2019-03-16T15:25:25.676Z,2.35
2019-03-16T15:27:55.278Z,5.40
2019-03-16T15:30:25.051Z,3.17
2019-03-16T15:32:54.604Z,3.23
2019-03-16T15:35:24.403Z,1.83
2019-03-16T15:37:53.906Z,2.83
2019-03-16T15:40:23.716Z,2.60
2019-03-16T15:42:53.378Z,6.33
2019-03-16T15:45:23.608Z,3.23
2019-03-16T15:47:53.497Z,2.03
2019-03-16T15:50:23.132Z,1.60
2019-03-16T15:52:52.890Z,5.65
2019-03-16T15:55:22.645Z,2.57
2019-03-16T15:57:52.533Z,3.00
2019-03-16T16:00:22.525Z,2.22
2019-03-16T16:02:52.527Z,4.00
2019-03-16T16:05:23.466Z,9.80
2019-03-16T16:07:53.264Z,1.55
2019-03-16T16:10:22.885Z,4.20
2019-03-16T16:12:52.464Z,5.03
2019-03-16T16:15:21.987Z,4.67
2019-03-16T16:17:51.806Z,1.40
2019-03-16T16:20:21.917Z,5.43
2019-03-16T16:22:51.423Z,2.87
2019-03-16T16:25:21.445Z,2.60
2019-03-16T16:27:51.146Z,4.70
2019-03-16T16:30:21.269Z,2.95
2019-03-16T16:32:50.967Z,3.07
2019-03-16T16:35:20.484Z,2.33
2019-03-16T16:37:50.243Z,3.03
2019-03-16T16:40:20.091Z,6.10
2019-03-16T16:42:49.889Z,3.00
2019-03-16T16:45:19.614Z,4.50
2019-03-16T16:47:49.219Z,3.70
2019-03-16T16:50:19.132Z,3.05
2019-03-16T16:52:48.924Z,3.97
2019-03-16T16:55:18.759Z,6.07
2019-03-16T16:57:48.468Z,7.73
2019-03-16T17:00:18.447Z,6.10
2019-03-16T17:02:48.263Z,5.27
2019-03-16T17:05:17.846Z,3.35
2019-03-16T17:07:47.245Z,3.90
2019-03-16T17:10:16.943Z,12.77
2019-03-16T17:12:46.714Z,16.20
2019-03-16T17:15:16.429Z,7.22
2019-03-16T17:17:46.030Z,4.10
2019-03-16T17:20:15.804Z,7.67
2019-03-16T17:22:45.564Z,5.53
2019-03-16T17:25:15.446Z,2.40
2019-03-16T17:27:45.271Z,4.73
2019-03-16T17:30:16.763Z,6.17
2019-03-16T17:32:46.327Z,3.70
2019-03-16T17:35:16.402Z,7.03
2019-03-16T17:37:46.540Z,3.50
2019-03-16T17:40:16.165Z,8.00
2019-03-16T17:42:46.044Z,5.20
2019-03-16T17:45:16.055Z,3.00
2019-03-16T17:47:45.740Z,4.77
2019-03-16T17:50:15.923Z,8.03
2019-03-16T17:52:45.426Z,5.75
2019-03-16T17:55:15.444Z,8.93
2019-03-16T17:57:45.633Z,3.13
2019-03-16T18:00:15.684Z,5.53
2019-03-16T18:02:51.697Z,25.43
2019-03-16T18:05:17.119Z,4.85
2019-03-16T18:07:47.245Z,7.67
2019-03-16T18:10:17.003Z,3.33
2019-03-16T18:12:46.528Z,6.58
2019-03-16T18:15:16.387Z,4.42
2019-03-16T18:17:46.165Z,3.60
2019-03-16T18:20:17.264Z,3.10
2019-03-16T18:22:47.731Z,4.47
2019-03-16T18:25:17.812Z,7.53
2019-03-16T18:27:47.288Z,3.90
2019-03-16T18:30:17.199Z,2.83
2019-03-16T18:32:46.941Z,26.87
2019-03-16T18:35:16.827Z,7.07
2019-03-16T18:37:46.605Z,4.87
2019-03-16T18:40:16.758Z,6.53
2019-03-16T18:42:46.227Z,8.20
2019-03-16T18:45:16.523Z,11.50
2019-03-16T18:47:46.399Z,8.40
2019-03-16T18:50:16.805Z,6.92
2019-03-16T18:52:46.647Z,5.70
2019-03-16T18:55:16.460Z,7.47
2019-03-16T18:57:46.403Z,7.47
2019-03-16T19:00:16.526Z,4.75
2019-03-16T19:02:46.459Z,6.97
2019-03-16T19:05:16.243Z,4.25
2019-03-16T19:07:45.918Z,2.58
2019-03-16T19:10:15.703Z,3.87
2019-03-16T19:12:45.442Z,7.92
2019-03-16T19:15:15.688Z,3.87
2019-03-16T19:17:58.169Z,4.53
2019-03-16T19:20:17.838Z,5.08
2019-03-16T19:22:47.524Z,8.15
2019-03-16T19:25:17.481Z,8.00
2019-03-16T19:27:47.331Z,4.97
2019-03-16T19:30:17.244Z,6.95
2019-03-16T19:32:46.700Z,7.40
2019-03-16T19:35:17.240Z,9.60
2019-03-16T19:37:47.371Z,5.93
2019-03-16T19:40:17.234Z,6.43
2019-03-16T19:42:47.448Z,4.30
2019-03-16T19:45:17.372Z,20.50
2019-03-16T19:47:47.123Z,10.90
2019-03-16T19:50:17.362Z,10.13
2019-03-16T19:52:47.357Z,15.88
2019-03-16T19:55:17.130Z,10.87
2019-03-16T19:57:47.249Z,6.47
2019-03-16T20:00:17.052Z,8.17
2019-03-16T20:02:50.979Z,4.40
2019-03-16T20:05:18.812Z,7.42
2019-03-16T20:07:48.805Z,10.03
2019-03-16T20:10:18.746Z,9.15
2019-03-16T20:12:49.116Z,8.15
2019-03-16T20:15:19.276Z,9.60
2019-03-16T20:17:49.039Z,6.78
2019-03-16T20:20:19.304Z,4.55
2019-03-16T20:22:49.222Z,5.67
2019-03-16T20:25:19.537Z,19.03
2019-03-16T20:27:49.312Z,13.18
2019-03-16T20:30:26.671Z,10.68
2019-03-16T20:33:03.006Z,8.65
2019-03-16T20:35:22.289Z,14.53
2019-03-16T20:37:52.503Z,9.33
2019-03-16T20:40:22.522Z,15.50
2019-03-16T20:42:52.537Z,4.12
2019-03-16T20:45:22.438Z,10.38
2019-03-16T20:47:52.460Z,6.35
2019-03-16T20:50:22.996Z,8.05
2019-03-16T20:52:52.755Z,12.85
2019-03-16T20:55:23.079Z,6.17
2019-03-16T20:57:52.996Z,13.10
2019-03-16T21:00:22.761Z,12.60
2019-03-16T21:02:52.285Z,12.13
2019-03-16T21:05:21.795Z,9.38
2019-03-16T21:07:51.673Z,9.67
2019-03-16T21:10:21.482Z,5.97
2019-03-16T21:12:51.553Z,7.17
2019-03-16T21:15:21.553Z,7.65
2019-03-16T21:17:51.433Z,5.93
2019-03-16T21:20:21.557Z,6.53
2019-03-16T21:22:51.194Z,7.45
2019-03-16T21:25:20.950Z,7.22
2019-03-16T21:27:50.710Z,8.00
2019-03-16T21:30:20.372Z,6.45
2019-03-16T21:32:49.996Z,7.20
2019-03-16T21:35:19.870Z,9.15
2019-03-16T21:37:49.991Z,9.23
2019-03-16T21:40:19.334Z,6.80
2019-03-16T21:42:49.421Z,9.43
2019-03-16T21:45:19.399Z,6.53
2019-03-16T21:47:59.547Z,6.37
2019-03-16T21:50:20.232Z,12.70
2019-03-16T21:52:50.719Z,9.15
2019-03-16T21:55:20.603Z,9.33
2019-03-16T21:57:50.231Z,7.62
2019-03-16T22:00:19.875Z,4.92
2019-03-16T22:02:49.207Z,6.55
2019-03-16T22:05:18.913Z,10.72
2019-03-16T22:07:48.503Z,14.40
2019-03-16T22:10:18.192Z,10.30
2019-03-16T22:12:48.180Z,5.05
2019-03-16T22:15:18.070Z,6.47
2019-03-16T22:17:47.854Z,8.83
2019-03-16T22:20:17.510Z,9.95
2019-03-16T22:22:47.360Z,7.80
2019-03-16T22:25:17.052Z,4.00
2019-03-16T22:27:46.888Z,11.48
2019-03-16T22:30:16.629Z,14.98
2019-03-16T22:32:46.457Z,6.70
2019-03-16T22:35:16.163Z,8.28
2019-03-16T22:37:45.876Z,9.63
2019-03-16T22:40:15.787Z,5.08
2019-03-16T22:42:46.013Z,6.47
2019-03-16T22:45:15.713Z,6.28
2019-03-16T22:47:45.435Z,5.87
2019-03-16T22:50:15.198Z,5.57
2019-03-16T22:52:44.707Z,8.40
2019-03-16T22:55:15.882Z,5.75
2019-03-16T22:57:45.900Z,8.73
2019-03-16T23:00:17.174Z,4.78
2019-03-16T23:02:47.745Z,6.20
2019-03-16T23:05:17.349Z,6.42
2019-03-16T23:07:47.348Z,5.83
2019-03-16T23:10:16.894Z,7.12
2019-03-16T23:12:46.991Z,7.03
2019-03-16T23:15:16.419Z,11.73
2019-03-16T23:17:45.914Z,4.78
2019-03-16T23:20:15.785Z,2.90
2019-03-16T23:22:45.543Z,6.47
2019-03-16T23:25:15.308Z,4.17
2019-03-16T23:27:45.161Z,5.78
2019-03-16T23:30:14.971Z,5.10
2019-03-16T23:32:44.952Z,9.80
2019-03-16T23:35:14.403Z,3.33
2019-03-16T23:37:43.788Z,3.00
2019-03-16T23:40:13.879Z,2.77
2019-03-16T23:42:43.510Z,3.45
2019-03-16T23:45:13.505Z,4.47
2019-03-16T23:47:43.294Z,6.33
2019-03-16T23:50:13.454Z,3.70
2019-03-16T23:52:43.393Z,4.90
2019-03-16T23:55:13.517Z,7.87
2019-03-16T23:57:43.167Z,5.23
